sensor_id;sensor_type;location;lat;lon;timestamp;P1;durP1;ratioP1;P2;durP2;ratioP2
16320;SDS011;8269;50.990;4.494;2023-08-12T00:00:18;4.32;;;2.97;;
16320;SDS011;8269;50.990;4.494;2023-08-12T00:02:44;3.42;;;2.65;;
16320;SDS011;8269;50.990;4.494;2023-08-12T00:05:10;4.28;;;3.08;;
16320;SDS011;8269;50.990;4.494;2023-08-12T00:07:37;4.18;;;3.00;;
16320;SDS011;8269;50.990;4.494;2023-08-12T00:10:03;4.10;;;2.75;;
16320;SDS011;8269;50.990;4.494;2023-08-12T00:12:36;3.67;;;2.72;;
16320;SDS011;8269;50.990;4.494;2023-08-12T00:15:03;3.83;;;2.83;;
16320;SDS011;8269;50.990;4.494;2023-08-12T00:17:31;4.30;;;2.80;;
16320;SDS011;8269;50.990;4.494;2023-08-12T00:19:57;5.00;;;3.22;;
16320;SDS011;8269;50.990;4.494;2023-08-12T00:22:24;3.58;;;2.42;;
16320;SDS011;8269;50.990;4.494;2023-08-12T00:24:50;4.57;;;3.15;;
16320;SDS011;8269;50.990;4.494;2023-08-12T00:27:17;5.03;;;3.17;;
16320;SDS011;8269;50.990;4.494;2023-08-12T00:29:43;4.15;;;2.65;;
16320;SDS011;8269;50.990;4.494;2023-08-12T00:32:10;3.58;;;2.42;;
16320;SDS011;8269;50.990;4.494;2023-08-12T00:34:36;4.32;;;2.67;;
16320;SDS011;8269;50.990;4.494;2023-08-12T00:37:02;4.60;;;2.65;;
16320;SDS011;8269;50.990;4.494;2023-08-12T00:39:28;4.35;;;2.78;;
16320;SDS011;8269;50.990;4.494;2023-08-12T00:41:54;4.32;;;2.42;;
16320;SDS011;8269;50.990;4.494;2023-08-12T00:44:20;6.00;;;2.90;;
16320;SDS011;8269;50.990;4.494;2023-08-12T00:46:46;3.85;;;2.53;;
16320;SDS011;8269;50.990;4.494;2023-08-12T00:49:12;3.92;;;2.53;;
16320;SDS011;8269;50.990;4.494;2023-08-12T00:51:39;4.35;;;2.78;;
16320;SDS011;8269;50.990;4.494;2023-08-12T00:54:07;3.60;;;2.33;;
16320;SDS011;8269;50.990;4.494;2023-08-12T00:56:34;5.57;;;2.60;;
16320;SDS011;8269;50.990;4.494;2023-08-12T00:59:01;3.97;;;2.28;;
16320;SDS011;8269;50.990;4.494;2023-08-12T01:01:29;4.38;;;2.50;;
16320;SDS011;8269;50.990;4.494;2023-08-12T01:03:56;4.00;;;2.40;;
16320;SDS011;8269;50.990;4.494;2023-08-12T01:06:23;3.78;;;2.35;;
16320;SDS011;8269;50.990;4.494;2023-08-12T01:08:49;3.42;;;2.20;;
16320;SDS011;8269;50.990;4.494;2023-08-12T01:16:10;3.47;;;2.30;;
16320;SDS011;8269;50.990;4.494;2023-08-12T01:18:38;3.13;;;2.33;;
16320;SDS011;8269;50.990;4.494;2023-08-12T01:21:04;4.10;;;2.33;;
16320;SDS011;8269;50.990;4.494;2023-08-12T01:23:31;3.33;;;2.50;;
16320;SDS011;8269;50.990;4.494;2023-08-12T01:25:57;2.72;;;2.08;;
16320;SDS011;8269;50.990;4.494;2023-08-12T01:28:24;3.75;;;2.55;;
16320;SDS011;8269;50.990;4.494;2023-08-12T01:31:00;3.60;;;2.15;;
16320;SDS011;8269;50.990;4.494;2023-08-12T01:33:34;3.97;;;2.55;;
16320;SDS011;8269;50.990;4.494;2023-08-12T01:36:16;3.28;;;2.40;;
16320;SDS011;8269;50.990;4.494;2023-08-12T01:38:43;2.78;;;2.25;;
16320;SDS011;8269;50.990;4.494;2023-08-12T01:41:12;4.18;;;2.17;;
16320;SDS011;8269;50.990;4.494;2023-08-12T01:43:39;4.45;;;2.50;;
16320;SDS011;8269;50.990;4.494;2023-08-12T01:46:05;3.90;;;2.50;;
16320;SDS011;8269;50.990;4.494;2023-08-12T01:48:32;2.67;;;2.10;;
16320;SDS011;8269;50.990;4.494;2023-08-12T01:50:58;3.83;;;2.50;;
16320;SDS011;8269;50.990;4.494;2023-08-12T01:53:24;3.67;;;2.45;;
16320;SDS011;8269;50.990;4.494;2023-08-12T01:55:50;4.15;;;2.70;;
16320;SDS011;8269;50.990;4.494;2023-08-12T01:58:16;5.13;;;3.10;;
16320;SDS011;8269;50.990;4.494;2023-08-12T02:00:42;4.85;;;2.67;;
16320;SDS011;8269;50.990;4.494;2023-08-12T02:03:08;3.55;;;2.13;;
16320;SDS011;8269;50.990;4.494;2023-08-12T02:05:34;4.97;;;2.95;;
16320;SDS011;8269;50.990;4.494;2023-08-12T02:08:02;4.00;;;2.67;;
16320;SDS011;8269;50.990;4.494;2023-08-12T02:10:28;4.22;;;2.38;;
16320;SDS011;8269;50.990;4.494;2023-08-12T02:12:54;3.88;;;2.67;;
16320;SDS011;8269;50.990;4.494;2023-08-12T02:15:20;4.03;;;2.63;;
16320;SDS011;8269;50.990;4.494;2023-08-12T02:17:46;3.40;;;2.35;;
16320;SDS011;8269;50.990;4.494;2023-08-12T02:20:12;4.03;;;2.80;;
16320;SDS011;8269;50.990;4.494;2023-08-12T02:22:39;3.30;;;2.45;;
16320;SDS011;8269;50.990;4.494;2023-08-12T02:25:05;3.78;;;2.50;;
16320;SDS011;8269;50.990;4.494;2023-08-12T02:27:31;3.80;;;2.47;;
16320;SDS011;8269;50.990;4.494;2023-08-12T02:29:57;3.70;;;2.47;;
16320;SDS011;8269;50.990;4.494;2023-08-12T02:32:23;3.90;;;2.75;;
16320;SDS011;8269;50.990;4.494;2023-08-12T02:34:49;3.70;;;2.35;;
16320;SDS011;8269;50.990;4.494;2023-08-12T02:37:15;3.28;;;2.35;;
16320;SDS011;8269;50.990;4.494;2023-08-12T02:39:41;4.22;;;2.72;;
16320;SDS011;8269;50.990;4.494;2023-08-12T02:42:07;4.47;;;3.00;;
16320;SDS011;8269;50.990;4.494;2023-08-12T02:44:33;3.50;;;2.45;;
16320;SDS011;8269;50.990;4.494;2023-08-12T02:46:59;5.53;;;2.67;;
16320;SDS011;8269;50.990;4.494;2023-08-12T02:49:25;3.80;;;2.47;;
16320;SDS011;8269;50.990;4.494;2023-08-12T02:51:52;4.95;;;2.50;;
16320;SDS011;8269;50.990;4.494;2023-08-12T02:54:18;4.38;;;2.63;;
16320;SDS011;8269;50.990;4.494;2023-08-12T02:56:44;4.43;;;2.92;;
16320;SDS011;8269;50.990;4.494;2023-08-12T02:59:10;4.60;;;3.30;;
16320;SDS011;8269;50.990;4.494;2023-08-12T03:01:36;3.55;;;2.47;;
16320;SDS011;8269;50.990;4.494;2023-08-12T03:04:01;4.15;;;2.65;;
16320;SDS011;8269;50.990;4.494;2023-08-12T03:06:27;4.00;;;2.53;;
16320;SDS011;8269;50.990;4.494;2023-08-12T03:08:53;3.97;;;2.80;;
16320;SDS011;8269;50.990;4.494;2023-08-12T03:11:20;5.10;;;2.78;;
16320;SDS011;8269;50.990;4.494;2023-08-12T03:13:45;4.47;;;2.90;;
16320;SDS011;8269;50.990;4.494;2023-08-12T03:16:11;3.90;;;2.75;;
16320;SDS011;8269;50.990;4.494;2023-08-12T03:18:38;3.72;;;2.70;;
16320;SDS011;8269;50.990;4.494;2023-08-12T03:21:08;3.90;;;2.85;;
16320;SDS011;8269;50.990;4.494;2023-08-12T03:23:35;4.03;;;2.65;;
16320;SDS011;8269;50.990;4.494;2023-08-12T03:26:01;3.70;;;2.90;;
16320;SDS011;8269;50.990;4.494;2023-08-12T03:28:26;4.95;;;3.05;;
16320;SDS011;8269;50.990;4.494;2023-08-12T03:30:52;3.35;;;2.35;;
16320;SDS011;8269;50.990;4.494;2023-08-12T03:33:18;4.47;;;2.80;;
16320;SDS011;8269;50.990;4.494;2023-08-12T03:35:45;4.22;;;2.60;;
16320;SDS011;8269;50.990;4.494;2023-08-12T03:38:11;4.55;;;2.80;;
16320;SDS011;8269;50.990;4.494;2023-08-12T03:40:38;4.97;;;3.35;;
16320;SDS011;8269;50.990;4.494;2023-08-12T03:43:04;5.38;;;2.95;;
16320;SDS011;8269;50.990;4.494;2023-08-12T03:45:30;4.53;;;2.70;;
16320;SDS011;8269;50.990;4.494;2023-08-12T03:47:56;4.57;;;2.97;;
16320;SDS011;8269;50.990;4.494;2023-08-12T03:50:21;4.72;;;2.67;;
16320;SDS011;8269;50.990;4.494;2023-08-12T03:52:47;4.20;;;3.00;;
16320;SDS011;8269;50.990;4.494;2023-08-12T03:55:13;3.95;;;2.85;;
16320;SDS011;8269;50.990;4.494;2023-08-12T03:57:38;3.80;;;2.53;;
16320;SDS011;8269;50.990;4.494;2023-08-12T04:00:04;4.60;;;2.60;;
16320;SDS011;8269;50.990;4.494;2023-08-12T04:02:32;3.22;;;2.35;;
16320;SDS011;8269;50.990;4.494;2023-08-12T04:04:58;3.90;;;2.53;;
16320;SDS011;8269;50.990;4.494;2023-08-12T04:07:24;3.58;;;2.33;;
16320;SDS011;8269;50.990;4.494;2023-08-12T04:09:49;3.50;;;2.30;;
16320;SDS011;8269;50.990;4.494;2023-08-12T04:12:15;3.78;;;2.53;;
16320;SDS011;8269;50.990;4.494;2023-08-12T04:14:41;4.40;;;2.75;;
16320;SDS011;8269;50.990;4.494;2023-08-12T04:17:06;3.50;;;2.25;;
16320;SDS011;8269;50.990;4.494;2023-08-12T04:19:32;3.92;;;2.60;;
16320;SDS011;8269;50.990;4.494;2023-08-12T04:21:57;3.33;;;2.42;;
16320;SDS011;8269;50.990;4.494;2023-08-12T04:24:23;4.35;;;3.15;;
16320;SDS011;8269;50.990;4.494;2023-08-12T04:26:49;3.95;;;2.80;;
16320;SDS011;8269;50.990;4.494;2023-08-12T04:29:14;4.68;;;2.83;;
16320;SDS011;8269;50.990;4.494;2023-08-12T04:31:40;4.63;;;3.13;;
16320;SDS011;8269;50.990;4.494;2023-08-12T04:34:06;4.20;;;2.83;;
16320;SDS011;8269;50.990;4.494;2023-08-12T04:36:32;3.42;;;2.53;;
16320;SDS011;8269;50.990;4.494;2023-08-12T04:38:57;3.63;;;2.40;;
16320;SDS011;8269;50.990;4.494;2023-08-12T04:41:23;3.25;;;2.38;;
16320;SDS011;8269;50.990;4.494;2023-08-12T04:43:49;3.97;;;2.60;;
16320;SDS011;8269;50.990;4.494;2023-08-12T04:46:14;3.53;;;2.38;;
16320;SDS011;8269;50.990;4.494;2023-08-12T04:48:41;3.95;;;2.47;;
16320;SDS011;8269;50.990;4.494;2023-08-12T04:51:07;3.67;;;2.50;;
16320;SDS011;8269;50.990;4.494;2023-08-12T04:53:32;3.95;;;2.58;;
16320;SDS011;8269;50.990;4.494;2023-08-12T04:55:58;3.85;;;2.45;;
16320;SDS011;8269;50.990;4.494;2023-08-12T04:58:24;4.80;;;2.75;;
16320;SDS011;8269;50.990;4.494;2023-08-12T05:00:50;2.97;;;2.30;;
16320;SDS011;8269;50.990;4.494;2023-08-12T05:03:19;3.63;;;2.53;;
16320;SDS011;8269;50.990;4.494;2023-08-12T05:05:48;4.20;;;2.58;;
16320;SDS011;8269;50.990;4.494;2023-08-12T05:08:17;4.28;;;3.10;;
16320;SDS011;8269;50.990;4.494;2023-08-12T05:10:42;3.42;;;2.53;;
16320;SDS011;8269;50.990;4.494;2023-08-12T05:13:08;3.30;;;2.42;;
16320;SDS011;8269;50.990;4.494;2023-08-12T05:15:34;3.63;;;2.25;;
16320;SDS011;8269;50.990;4.494;2023-08-12T05:18:01;3.15;;;2.30;;
16320;SDS011;8269;50.990;4.494;2023-08-12T05:20:27;4.47;;;2.85;;
16320;SDS011;8269;50.990;4.494;2023-08-12T05:22:53;4.28;;;2.53;;
16320;SDS011;8269;50.990;4.494;2023-08-12T05:25:22;2.92;;;2.22;;
16320;SDS011;8269;50.990;4.494;2023-08-12T05:27:48;2.78;;;1.92;;
16320;SDS011;8269;50.990;4.494;2023-08-12T05:30:14;3.17;;;1.90;;
16320;SDS011;8269;50.990;4.494;2023-08-12T05:32:40;3.25;;;2.28;;
16320;SDS011;8269;50.990;4.494;2023-08-12T05:35:06;3.17;;;2.20;;
16320;SDS011;8269;50.990;4.494;2023-08-12T05:37:32;3.42;;;2.38;;
16320;SDS011;8269;50.990;4.494;2023-08-12T05:39:58;3.83;;;2.25;;
16320;SDS011;8269;50.990;4.494;2023-08-12T05:42:23;2.60;;;1.95;;
16320;SDS011;8269;50.990;4.494;2023-08-12T05:44:49;2.65;;;2.00;;
16320;SDS011;8269;50.990;4.494;2023-08-12T05:47:15;3.60;;;2.45;;
16320;SDS011;8269;50.990;4.494;2023-08-12T05:49:45;3.47;;;2.53;;
16320;SDS011;8269;50.990;4.494;2023-08-12T05:52:11;3.28;;;2.42;;
16320;SDS011;8269;50.990;4.494;2023-08-12T05:54:38;3.95;;;2.55;;
16320;SDS011;8269;50.990;4.494;2023-08-12T05:57:03;4.18;;;2.53;;
16320;SDS011;8269;50.990;4.494;2023-08-12T05:59:29;3.50;;;2.63;;
16320;SDS011;8269;50.990;4.494;2023-08-12T06:01:55;3.75;;;2.67;;
16320;SDS011;8269;50.990;4.494;2023-08-12T06:04:20;3.22;;;2.25;;
16320;SDS011;8269;50.990;4.494;2023-08-12T06:06:46;3.40;;;2.60;;
16320;SDS011;8269;50.990;4.494;2023-08-12T06:09:12;3.72;;;2.50;;
16320;SDS011;8269;50.990;4.494;2023-08-12T06:11:38;3.72;;;2.55;;
16320;SDS011;8269;50.990;4.494;2023-08-12T06:14:04;3.65;;;2.40;;
16320;SDS011;8269;50.990;4.494;2023-08-12T06:16:29;4.20;;;2.72;;
16320;SDS011;8269;50.990;4.494;2023-08-12T06:18:55;3.85;;;2.28;;
16320;SDS011;8269;50.990;4.494;2023-08-12T06:21:20;3.45;;;2.50;;
16320;SDS011;8269;50.990;4.494;2023-08-12T06:23:46;3.42;;;2.45;;
16320;SDS011;8269;50.990;4.494;2023-08-12T06:26:12;3.67;;;2.42;;
16320;SDS011;8269;50.990;4.494;2023-08-12T06:28:37;4.15;;;2.20;;
16320;SDS011;8269;50.990;4.494;2023-08-12T06:31:03;3.78;;;2.30;;
16320;SDS011;8269;50.990;4.494;2023-08-12T06:33:29;2.90;;;1.95;;
16320;SDS011;8269;50.990;4.494;2023-08-12T06:35:54;3.40;;;2.30;;
16320;SDS011;8269;50.990;4.494;2023-08-12T06:38:21;2.90;;;2.08;;
16320;SDS011;8269;50.990;4.494;2023-08-12T06:40:47;3.00;;;1.95;;
16320;SDS011;8269;50.990;4.494;2023-08-12T06:43:13;2.65;;;2.00;;
16320;SDS011;8269;50.990;4.494;2023-08-12T06:45:38;3.33;;;1.95;;
16320;SDS011;8269;50.990;4.494;2023-08-12T06:48:04;2.80;;;1.98;;
16320;SDS011;8269;50.990;4.494;2023-08-12T06:50:30;3.15;;;1.98;;
16320;SDS011;8269;50.990;4.494;2023-08-12T06:52:58;2.80;;;1.80;;
16320;SDS011;8269;50.990;4.494;2023-08-12T06:55:24;2.53;;;1.52;;
16320;SDS011;8269;50.990;4.494;2023-08-12T06:57:49;2.08;;;1.40;;
16320;SDS011;8269;50.990;4.494;2023-08-12T07:00:15;2.10;;;1.50;;
16320;SDS011;8269;50.990;4.494;2023-08-12T07:02:41;2.25;;;1.35;;
16320;SDS011;8269;50.990;4.494;2023-08-12T07:05:07;3.22;;;1.70;;
16320;SDS011;8269;50.990;4.494;2023-08-12T07:07:33;2.75;;;1.80;;
16320;SDS011;8269;50.990;4.494;2023-08-12T07:09:59;2.17;;;1.50;;
16320;SDS011;8269;50.990;4.494;2023-08-12T07:12:25;2.35;;;1.50;;
16320;SDS011;8269;50.990;4.494;2023-08-12T07:14:51;2.22;;;1.50;;
16320;SDS011;8269;50.990;4.494;2023-08-12T07:17:16;2.05;;;1.30;;
16320;SDS011;8269;50.990;4.494;2023-08-12T07:19:42;1.42;;;0.98;;
16320;SDS011;8269;50.990;4.494;2023-08-12T07:22:08;1.52;;;1.15;;
16320;SDS011;8269;50.990;4.494;2023-08-12T07:24:34;1.50;;;1.00;;
16320;SDS011;8269;50.990;4.494;2023-08-12T07:27:00;1.48;;;1.10;;
16320;SDS011;8269;50.990;4.494;2023-08-12T07:29:25;2.00;;;1.13;;
16320;SDS011;8269;50.990;4.494;2023-08-12T07:31:51;1.33;;;0.85;;
16320;SDS011;8269;50.990;4.494;2023-08-12T07:34:17;1.15;;;0.82;;
16320;SDS011;8269;50.990;4.494;2023-08-12T07:36:43;2.13;;;1.13;;
16320;SDS011;8269;50.990;4.494;2023-08-12T07:39:10;1.02;;;0.88;;
16320;SDS011;8269;50.990;4.494;2023-08-12T07:41:37;2.42;;;1.10;;
16320;SDS011;8269;50.990;4.494;2023-08-12T07:44:04;1.30;;;0.98;;
16320;SDS011;8269;50.990;4.494;2023-08-12T07:46:33;1.75;;;1.40;;
16320;SDS011;8269;50.990;4.494;2023-08-12T07:49:00;2.70;;;1.70;;
16320;SDS011;8269;50.990;4.494;2023-08-12T07:51:25;2.40;;;1.55;;
16320;SDS011;8269;50.990;4.494;2023-08-12T07:53:53;2.83;;;1.90;;
16320;SDS011;8269;50.990;4.494;2023-08-12T07:56:18;2.63;;;1.58;;
16320;SDS011;8269;50.990;4.494;2023-08-12T07:58:44;2.17;;;1.58;;
16320;SDS011;8269;50.990;4.494;2023-08-12T08:01:10;1.75;;;1.20;;
16320;SDS011;8269;50.990;4.494;2023-08-12T08:03:36;1.50;;;1.02;;
16320;SDS011;8269;50.990;4.494;2023-08-12T08:06:02;1.60;;;1.00;;
16320;SDS011;8269;50.990;4.494;2023-08-12T08:08:28;1.13;;;0.70;;
16320;SDS011;8269;50.990;4.494;2023-08-12T08:10:53;0.73;;;0.70;;
16320;SDS011;8269;50.990;4.494;2023-08-12T08:13:19;0.70;;;0.70;;
16320;SDS011;8269;50.990;4.494;2023-08-12T08:15:45;0.95;;;0.75;;
16320;SDS011;8269;50.990;4.494;2023-08-12T08:18:12;1.02;;;0.63;;
16320;SDS011;8269;50.990;4.494;2023-08-12T08:20:39;1.00;;;0.68;;
16320;SDS011;8269;50.990;4.494;2023-08-12T08:23:07;0.90;;;0.70;;
16320;SDS011;8269;50.990;4.494;2023-08-12T08:25:41;1.67;;;1.10;;
16320;SDS011;8269;50.990;4.494;2023-08-12T08:28:08;1.73;;;1.20;;
16320;SDS011;8269;50.990;4.494;2023-08-12T08:30:36;1.88;;;1.40;;
16320;SDS011;8269;50.990;4.494;2023-08-12T08:33:03;1.40;;;1.17;;
16320;SDS011;8269;50.990;4.494;2023-08-12T08:35:30;1.30;;;1.20;;
16320;SDS011;8269;50.990;4.494;2023-08-12T08:37:56;1.65;;;1.35;;
16320;SDS011;8269;50.990;4.494;2023-08-12T08:40:22;2.10;;;1.40;;
16320;SDS011;8269;50.990;4.494;2023-08-12T08:42:51;1.70;;;1.25;;
16320;SDS011;8269;50.990;4.494;2023-08-12T08:45:20;2.45;;;1.70;;
16320;SDS011;8269;50.990;4.494;2023-08-12T08:47:47;2.00;;;1.50;;
16320;SDS011;8269;50.990;4.494;2023-08-12T08:50:13;2.10;;;1.55;;
16320;SDS011;8269;50.990;4.494;2023-08-12T08:52:40;2.42;;;1.42;;
16320;SDS011;8269;50.990;4.494;2023-08-12T08:55:09;1.83;;;1.52;;
16320;SDS011;8269;50.990;4.494;2023-08-12T08:57:35;2.55;;;1.38;;
16320;SDS011;8269;50.990;4.494;2023-08-12T09:00:02;2.28;;;1.60;;
16320;SDS011;8269;50.990;4.494;2023-08-12T09:02:32;1.40;;;1.30;;
16320;SDS011;8269;50.990;4.494;2023-08-12T09:04:59;1.98;;;1.45;;
16320;SDS011;8269;50.990;4.494;2023-08-12T09:07:27;2.53;;;1.67;;
16320;SDS011;8269;50.990;4.494;2023-08-12T09:09:54;2.72;;;1.60;;
16320;SDS011;8269;50.990;4.494;2023-08-12T09:12:21;2.17;;;1.52;;
16320;SDS011;8269;50.990;4.494;2023-08-12T09:14:48;1.90;;;1.30;;
16320;SDS011;8269;50.990;4.494;2023-08-12T09:17:13;2.38;;;1.42;;
16320;SDS011;8269;50.990;4.494;2023-08-12T09:19:40;2.17;;;1.60;;
16320;SDS011;8269;50.990;4.494;2023-08-12T09:22:07;2.30;;;1.77;;
16320;SDS011;8269;50.990;4.494;2023-08-12T09:24:36;2.08;;;1.52;;
16320;SDS011;8269;50.990;4.494;2023-08-12T09:27:02;2.15;;;1.77;;
16320;SDS011;8269;50.990;4.494;2023-08-12T09:29:32;2.88;;;1.70;;
16320;SDS011;8269;50.990;4.494;2023-08-12T09:32:11;2.08;;;1.40;;
16320;SDS011;8269;50.990;4.494;2023-08-12T09:34:43;2.00;;;1.50;;
16320;SDS011;8269;50.990;4.494;2023-08-12T09:37:18;2.28;;;1.70;;
16320;SDS011;8269;50.990;4.494;2023-08-12T09:39:46;2.58;;;1.77;;
16320;SDS011;8269;50.990;4.494;2023-08-12T09:42:13;2.75;;;1.98;;
16320;SDS011;8269;50.990;4.494;2023-08-12T09:44:40;2.10;;;1.50;;
16320;SDS011;8269;50.990;4.494;2023-08-12T09:47:07;2.05;;;1.40;;
16320;SDS011;8269;50.990;4.494;2023-08-12T09:49:36;2.40;;;1.52;;
16320;SDS011;8269;50.990;4.494;2023-08-12T09:52:03;1.13;;;1.02;;
16320;SDS011;8269;50.990;4.494;2023-08-12T09:54:33;2.28;;;1.42;;
16320;SDS011;8269;50.990;4.494;2023-08-12T09:57:00;1.35;;;1.20;;
16320;SDS011;8269;50.990;4.494;2023-08-12T09:59:30;1.42;;;1.20;;
16320;SDS011;8269;50.990;4.494;2023-08-12T10:02:01;1.88;;;1.08;;
16320;SDS011;8269;50.990;4.494;2023-08-12T10:04:50;2.05;;;1.10;;
16320;SDS011;8269;50.990;4.494;2023-08-12T10:07:20;2.15;;;1.10;;
16320;SDS011;8269;50.990;4.494;2023-08-12T10:09:48;1.45;;;1.10;;
16320;SDS011;8269;50.990;4.494;2023-08-12T10:12:14;1.48;;;0.90;;
16320;SDS011;8269;50.990;4.494;2023-08-12T10:14:40;0.80;;;0.60;;
16320;SDS011;8269;50.990;4.494;2023-08-12T10:17:06;1.58;;;1.00;;
16320;SDS011;8269;50.990;4.494;2023-08-12T10:19:34;0.73;;;0.70;;
16320;SDS011;8269;50.990;4.494;2023-08-12T10:22:02;2.85;;;0.98;;
16320;SDS011;8269;50.990;4.494;2023-08-12T10:24:28;1.10;;;1.00;;
16320;SDS011;8269;50.990;4.494;2023-08-12T10:26:55;1.77;;;1.00;;
16320;SDS011;8269;50.990;4.494;2023-08-12T10:29:24;1.20;;;0.90;;
16320;SDS011;8269;50.990;4.494;2023-08-12T10:31:50;2.20;;;0.93;;
16320;SDS011;8269;50.990;4.494;2023-08-12T10:34:22;1.73;;;1.02;;
16320;SDS011;8269;50.990;4.494;2023-08-12T10:36:56;1.73;;;1.10;;
16320;SDS011;8269;50.990;4.494;2023-08-12T10:39:25;1.15;;;1.00;;
16320;SDS011;8269;50.990;4.494;2023-08-12T10:41:56;1.65;;;1.20;;
16320;SDS011;8269;50.990;4.494;2023-08-12T10:44:26;1.05;;;0.65;;
16320;SDS011;8269;50.990;4.494;2023-08-12T10:47:07;1.27;;;0.90;;
16320;SDS011;8269;50.990;4.494;2023-08-12T10:49:43;2.17;;;1.02;;
16320;SDS011;8269;50.990;4.494;2023-08-12T10:52:25;1.67;;;1.00;;
16320;SDS011;8269;50.990;4.494;2023-08-12T10:54:55;1.15;;;0.85;;
16320;SDS011;8269;50.990;4.494;2023-08-12T10:57:53;1.95;;;0.85;;
16320;SDS011;8269;50.990;4.494;2023-08-12T11:00:22;0.60;;;0.55;;
16320;SDS011;8269;50.990;4.494;2023-08-12T11:02:50;0.85;;;0.80;;
16320;SDS011;8269;50.990;4.494;2023-08-12T11:05:18;0.75;;;0.70;;
16320;SDS011;8269;50.990;4.494;2023-08-12T11:07:45;1.10;;;0.65;;
16320;SDS011;8269;50.990;4.494;2023-08-12T11:12:40;1.27;;;0.65;;
16320;SDS011;8269;50.990;4.494;2023-08-12T11:15:07;1.50;;;0.80;;
16320;SDS011;8269;50.990;4.494;2023-08-12T11:17:35;0.75;;;0.70;;
16320;SDS011;8269;50.990;4.494;2023-08-12T11:20:05;0.50;;;0.50;;
16320;SDS011;8269;50.990;4.494;2023-08-12T11:22:35;1.77;;;0.80;;
16320;SDS011;8269;50.990;4.494;2023-08-12T11:25:03;0.50;;;0.50;;
16320;SDS011;8269;50.990;4.494;2023-08-12T11:27:44;1.35;;;0.70;;
16320;SDS011;8269;50.990;4.494;2023-08-12T11:30:12;2.58;;;0.73;;
16320;SDS011;8269;50.990;4.494;2023-08-12T11:32:42;1.88;;;0.70;;
16320;SDS011;8269;50.990;4.494;2023-08-12T11:35:09;1.17;;;0.80;;
16320;SDS011;8269;50.990;4.494;2023-08-12T11:37:37;1.95;;;0.80;;
16320;SDS011;8269;50.990;4.494;2023-08-12T11:40:04;0.73;;;0.50;;
16320;SDS011;8269;50.990;4.494;2023-08-12T11:42:31;0.90;;;0.63;;
16320;SDS011;8269;50.990;4.494;2023-08-12T11:44:58;1.40;;;0.80;;
16320;SDS011;8269;50.990;4.494;2023-08-12T11:47:24;0.77;;;0.57;;
16320;SDS011;8269;50.990;4.494;2023-08-12T11:49:51;1.35;;;0.70;;
16320;SDS011;8269;50.990;4.494;2023-08-12T11:52:17;1.55;;;0.85;;
16320;SDS011;8269;50.990;4.494;2023-08-12T11:54:43;1.65;;;0.80;;
16320;SDS011;8269;50.990;4.494;2023-08-12T11:57:09;0.50;;;0.50;;
16320;SDS011;8269;50.990;4.494;2023-08-12T11:59:36;1.13;;;0.60;;
16320;SDS011;8269;50.990;4.494;2023-08-12T12:02:02;2.80;;;1.10;;
16320;SDS011;8269;50.990;4.494;2023-08-12T12:04:32;2.38;;;0.80;;
16320;SDS011;8269;50.990;4.494;2023-08-12T12:06:58;1.15;;;0.60;;
16320;SDS011;8269;50.990;4.494;2023-08-12T12:09:25;1.03;;;0.60;;
16320;SDS011;8269;50.990;4.494;2023-08-12T12:11:53;0.88;;;0.70;;
16320;SDS011;8269;50.990;4.494;2023-08-12T12:14:20;0.75;;;0.65;;
16320;SDS011;8269;50.990;4.494;2023-08-12T12:16:47;3.60;;;0.68;;
16320;SDS011;8269;50.990;4.494;2023-08-12T12:19:14;1.38;;;0.95;;
16320;SDS011;8269;50.990;4.494;2023-08-12T12:21:41;1.70;;;0.90;;
16320;SDS011;8269;50.990;4.494;2023-08-12T12:24:10;2.45;;;1.08;;
16320;SDS011;8269;50.990;4.494;2023-08-12T12:26:36;2.03;;;0.60;;
16320;SDS011;8269;50.990;4.494;2023-08-12T12:29:03;1.05;;;0.65;;
16320;SDS011;8269;50.990;4.494;2023-08-12T12:31:33;1.92;;;0.63;;
16320;SDS011;8269;50.990;4.494;2023-08-12T12:34:03;1.38;;;0.70;;
16320;SDS011;8269;50.990;4.494;2023-08-12T12:36:30;2.08;;;0.82;;
16320;SDS011;8269;50.990;4.494;2023-08-12T12:38:56;0.70;;;0.70;;
16320;SDS011;8269;50.990;4.494;2023-08-12T12:41:23;0.75;;;0.60;;
16320;SDS011;8269;50.990;4.494;2023-08-12T12:43:48;2.45;;;1.10;;
16320;SDS011;8269;50.990;4.494;2023-08-12T12:46:14;2.88;;;1.30;;
16320;SDS011;8269;50.990;4.494;2023-08-12T12:48:41;1.98;;;0.80;;
16320;SDS011;8269;50.990;4.494;2023-08-12T12:51:07;1.85;;;0.73;;
16320;SDS011;8269;50.990;4.494;2023-08-12T12:53:38;1.95;;;1.30;;
16320;SDS011;8269;50.990;4.494;2023-08-12T12:56:05;4.00;;;2.58;;
16320;SDS011;8269;50.990;4.494;2023-08-12T12:58:31;7.10;;;5.07;;
16320;SDS011;8269;50.990;4.494;2023-08-12T13:01:01;4.00;;;2.70;;
16320;SDS011;8269;50.990;4.494;2023-08-12T13:03:29;4.20;;;2.20;;
16320;SDS011;8269;50.990;4.494;2023-08-12T13:05:55;1.70;;;0.93;;
16320;SDS011;8269;50.990;4.494;2023-08-12T13:08:21;1.88;;;1.23;;
16320;SDS011;8269;50.990;4.494;2023-08-12T13:10:47;1.13;;;0.73;;
16320;SDS011;8269;50.990;4.494;2023-08-12T13:13:14;2.17;;;0.85;;
16320;SDS011;8269;50.990;4.494;2023-08-12T13:15:43;1.17;;;0.60;;
16320;SDS011;8269;50.990;4.494;2023-08-12T13:18:10;1.27;;;0.75;;
16320;SDS011;8269;50.990;4.494;2023-08-12T13:20:36;1.67;;;1.00;;
16320;SDS011;8269;50.990;4.494;2023-08-12T13:23:04;4.88;;;3.13;;
16320;SDS011;8269;50.990;4.494;2023-08-12T13:25:30;2.10;;;1.30;;
16320;SDS011;8269;50.990;4.494;2023-08-12T13:27:58;1.55;;;0.75;;
16320;SDS011;8269;50.990;4.494;2023-08-12T13:30:25;4.97;;;2.80;;
16320;SDS011;8269;50.990;4.494;2023-08-12T13:32:51;1.15;;;0.60;;
16320;SDS011;8269;50.990;4.494;2023-08-12T13:35:17;1.45;;;0.65;;
16320;SDS011;8269;50.990;4.494;2023-08-12T13:37:43;2.80;;;1.60;;
16320;SDS011;8269;50.990;4.494;2023-08-12T13:40:09;3.10;;;1.52;;
16320;SDS011;8269;50.990;4.494;2023-08-12T13:42:36;3.83;;;2.45;;
16320;SDS011;8269;50.990;4.494;2023-08-12T13:45:02;2.00;;;1.30;;
16320;SDS011;8269;50.990;4.494;2023-08-12T13:47:29;1.83;;;0.80;;
16320;SDS011;8269;50.990;4.494;2023-08-12T13:49:55;1.38;;;0.80;;
16320;SDS011;8269;50.990;4.494;2023-08-12T13:52:21;0.60;;;0.60;;
16320;SDS011;8269;50.990;4.494;2023-08-12T13:54:46;1.38;;;0.80;;
16320;SDS011;8269;50.990;4.494;2023-08-12T13:57:12;1.42;;;0.77;;
16320;SDS011;8269;50.990;4.494;2023-08-12T13:59:38;1.63;;;0.80;;
16320;SDS011;8269;50.990;4.494;2023-08-12T14:02:05;2.63;;;1.55;;
16320;SDS011;8269;50.990;4.494;2023-08-12T14:04:32;1.25;;;1.15;;
16320;SDS011;8269;50.990;4.494;2023-08-12T14:06:58;1.50;;;1.10;;
16320;SDS011;8269;50.990;4.494;2023-08-12T14:09:25;1.27;;;0.88;;
16320;SDS011;8269;50.990;4.494;2023-08-12T14:11:50;1.77;;;1.02;;
16320;SDS011;8269;50.990;4.494;2023-08-12T14:14:16;0.93;;;0.80;;
16320;SDS011;8269;50.990;4.494;2023-08-12T14:16:42;2.25;;;0.80;;
16320;SDS011;8269;50.990;4.494;2023-08-12T14:19:08;0.77;;;0.60;;
16320;SDS011;8269;50.990;4.494;2023-08-12T14:21:33;0.93;;;0.60;;
16320;SDS011;8269;50.990;4.494;2023-08-12T14:23:59;1.27;;;0.75;;
16320;SDS011;8269;50.990;4.494;2023-08-12T14:26:25;1.52;;;0.70;;
16320;SDS011;8269;50.990;4.494;2023-08-12T14:28:50;2.15;;;0.80;;
16320;SDS011;8269;50.990;4.494;2023-08-12T14:31:16;1.05;;;0.75;;
16320;SDS011;8269;50.990;4.494;2023-08-12T14:33:42;1.35;;;0.80;;
16320;SDS011;8269;50.990;4.494;2023-08-12T14:36:08;1.02;;;0.60;;
16320;SDS011;8269;50.990;4.494;2023-08-12T14:38:34;1.27;;;0.70;;
16320;SDS011;8269;50.990;4.494;2023-08-12T14:41:00;1.27;;;1.02;;
16320;SDS011;8269;50.990;4.494;2023-08-12T14:43:26;1.55;;;0.75;;
16320;SDS011;8269;50.990;4.494;2023-08-12T14:45:52;1.83;;;0.90;;
16320;SDS011;8269;50.990;4.494;2023-08-12T14:48:17;0.82;;;0.68;;
16320;SDS011;8269;50.990;4.494;2023-08-12T14:50:43;1.35;;;0.73;;
16320;SDS011;8269;50.990;4.494;2023-08-12T14:53:10;1.98;;;0.77;;
16320;SDS011;8269;50.990;4.494;2023-08-12T14:55:35;1.80;;;0.90;;
16320;SDS011;8269;50.990;4.494;2023-08-12T14:58:02;1.20;;;0.90;;
16320;SDS011;8269;50.990;4.494;2023-08-12T15:00:28;1.77;;;0.82;;
16320;SDS011;8269;50.990;4.494;2023-08-12T15:02:54;1.67;;;0.80;;
16320;SDS011;8269;50.990;4.494;2023-08-12T15:05:19;1.92;;;1.10;;